Time;durP1;ratioP1;P1;durP2;ratioP2;P2;SDS_P1;SDS_P2;PMS_P1;PMS_P2;Temp;Humidity;BMP_temperature;BMP_pressure;BME280_temperature;BME280_humidity;BME280_pressure;Samples;Min_cycle;Max_cycle;Signal;HPM_P1;HPM_P2
2020/12/14 00:01:38;;;;;;;46.83;31.20;;;;;;;3.42;87.25;99835.97;1745371;81;25307;-67
2020/12/14 00:04:06;;;;;;;46.53;30.63;;;;;;;3.41;87.32;99834.27;1739776;81;25324;-67
2020/12/14 00:06:33;;;;;;;44.30;29.17;;;;;;;3.42;87.39;99839.00;1723345;82;25338;-67
2020/12/14 00:09:00;;;;;;;46.40;30.30;;;;;;;3.45;87.51;99849.27;1723007;82;25353;-67
2020/12/14 00:11:36;;;;;;;47.77;30.03;;;;;;;3.46;87.49;99838.80;1721627;82;25166;-67
2020/12/14 00:14:03;;;;;;;46.53;29.83;;;;;;;3.49;87.52;99841.73;1727018;82;25323;-67
2020/12/14 00:16:30;;;;;;;44.13;29.70;;;;;;;3.52;87.50;99849.41;1721971;82;25713;-68
2020/12/14 00:18:56;;;;;;;45.37;31.00;;;;;;;3.51;87.41;99852.44;1723098;82;25360;-67
2020/12/14 00:21:23;;;;;;;46.33;30.33;;;;;;;3.50;87.34;99855.97;1720730;82;25686;-67
2020/12/14 00:23:51;;;;;;;46.17;30.30;;;;;;;3.49;87.30;99862.54;1720487;82;25383;-68
2020/12/14 00:26:20;;;;;;;45.57;29.93;;;;;;;3.48;87.23;99868.17;1723062;83;25250;-67
2020/12/14 00:28:55;;;;;;;47.03;30.77;;;;;;;3.55;87.25;99867.91;1818339;78;27634;-67
2020/12/14 00:31:21;;;;;;;45.07;29.83;;;;;;;3.51;87.29;99866.74;1789611;80;25210;-68
2020/12/14 00:33:48;;;;;;;42.63;29.40;;;;;;;3.54;87.29;99873.58;1789517;79;25288;-68
2020/12/14 00:36:15;;;;;;;44.20;29.23;;;;;;;3.58;87.36;99879.48;1789571;79;25633;-69
2020/12/14 00:38:42;;;;;;;41.33;27.77;;;;;;;3.57;87.27;99873.45;1789360;79;25170;-68
2020/12/14 00:41:17;;;;;;;42.53;27.93;;;;;;;3.57;87.31;99879.95;1789459;80;25226;-69
2020/12/14 00:43:44;;;;;;;45.20;27.90;;;;;;;3.60;87.41;99883.69;1789657;79;25185;-67
2020/12/14 00:46:13;;;;;;;40.87;25.43;;;;;;;3.65;87.29;99886.95;1789525;80;25321;-69
2020/12/14 00:48:40;;;;;;;37.27;26.20;;;;;;;3.66;87.21;99885.19;1789244;79;25238;-68
2020/12/14 00:51:07;;;;;;;40.93;27.30;;;;;;;3.67;87.06;99887.72;1765394;79;25095;-67
2020/12/14 00:53:34;;;;;;;38.73;26.03;;;;;;;3.65;87.00;99886.95;1738712;82;25284;-68
2020/12/14 00:56:02;;;;;;;40.87;26.60;;;;;;;3.61;86.91;99897.56;1738871;82;25388;-67
2020/12/14 00:58:30;;;;;;;40.63;27.20;;;;;;;3.56;86.89;99897.75;1738870;82;25353;-67
2020/12/14 01:00:56;;;;;;;40.50;27.27;;;;;;;3.55;86.92;99898.66;1738714;82;25294;-68
2020/12/14 01:03:23;;;;;;;40.07;26.37;;;;;;;3.56;86.96;99900.36;1738852;82;25230;-68
2020/12/14 01:05:51;;;;;;;42.20;28.50;;;;;;;3.59;87.00;99905.89;1738793;82;25724;-68
2020/12/14 01:08:21;;;;;;;39.43;26.50;;;;;;;3.60;87.07;99912.77;1738756;82;25160;-67
2020/12/14 01:10:49;;;;;;;40.70;25.77;;;;;;;3.61;87.07;99907.96;1738832;82;25808;-68
2020/12/14 01:13:15;;;;;;;36.53;24.67;;;;;;;3.59;87.04;99910.63;1738761;82;25266;-67
2020/12/14 01:15:42;;;;;;;38.40;25.67;;;;;;;3.57;87.12;99912.89;1738773;82;25214;-67
2020/12/14 01:18:10;;;;;;;37.80;25.80;;;;;;;3.55;87.19;99912.95;1738809;82;25641;-68
2020/12/14 01:20:40;;;;;;;40.97;27.33;;;;;;;3.55;87.22;99910.36;1738851;82;25321;-68
2020/12/14 01:23:07;;;;;;;43.07;26.70;;;;;;;3.58;87.33;99913.30;1738830;82;25270;-67
2020/12/14 01:25:33;;;;;;;41.70;27.40;;;;;;;3.57;87.27;99905.95;1738780;82;25725;-68
2020/12/14 01:28:00;;;;;;;43.30;27.87;;;;;;;3.57;87.30;99908.56;1725063;82;25429;-67
2020/12/14 01:30:27;;;;;;;43.23;28.23;;;;;;;3.56;87.30;99909.45;1712215;83;25732;-68
2020/12/14 01:32:54;;;;;;;43.70;29.30;;;;;;;3.56;87.33;99915.96;1712293;83;25292;-68
2020/12/14 01:35:20;;;;;;;45.10;29.40;;;;;;;3.57;87.29;99912.45;1712306;83;25300;-67
2020/12/14 01:37:47;;;;;;;42.27;26.20;;;;;;;3.55;87.19;99918.16;1685812;83;25292;-67
2020/12/14 01:40:14;;;;;;;41.13;27.37;;;;;;;3.52;87.05;99915.72;1711846;83;25248;-67
2020/12/14 01:42:41;;;;;;;37.57;25.40;;;;;;;3.50;87.11;99912.31;1711833;83;25323;-67
2020/12/14 01:45:08;;;;;;;39.27;26.40;;;;;;;3.47;87.09;99912.02;1711819;83;25604;-67
2020/12/14 01:47:39;;;;;;;39.13;26.30;;;;;;;3.47;87.21;99915.05;1711768;83;25398;-67
2020/12/14 01:50:06;;;;;;;39.90;25.97;;;;;;;3.46;87.24;99910.78;1711679;83;25375;-67
2020/12/14 01:52:33;;;;;;;39.53;26.33;;;;;;;3.48;87.33;99903.75;1711759;83;25340;-67
2020/12/14 01:55:02;;;;;;;40.90;26.97;;;;;;;3.45;87.30;99902.58;1711742;83;25308;-67
2020/12/14 01:57:28;;;;;;;44.07;28.37;;;;;;;3.43;87.37;99903.11;1711224;83;25308;-67
2020/12/14 01:59:57;;;;;;;42.87;28.83;;;;;;;3.40;87.49;99897.57;1711782;83;25249;-67
2020/12/14 02:02:25;;;;;;;57.50;33.87;;;;;;;3.42;87.60;99891.87;1711769;83;25126;-68
2020/12/14 02:04:51;;;;;;;41.87;27.17;;;;;;;3.44;87.64;99893.94;1711760;83;25268;-68
2020/12/14 02:07:18;;;;;;;51.43;32.83;;;;;;;3.44;87.65;99900.91;1711721;83;25324;-67
2020/12/14 02:09:45;;;;;;;63.80;38.93;;;;;;;3.44;87.60;99893.11;1711779;83;25311;-68
2020/12/14 02:12:12;;;;;;;51.47;33.00;;;;;;;3.42;87.66;99898.38;1711890;83;25247;-67
2020/12/14 02:14:39;;;;;;;46.97;29.17;;;;;;;3.44;87.75;99905.64;1711788;83;25824;-67
2020/12/14 02:17:07;;;;;;;47.37;30.40;;;;;;;3.46;87.83;99907.71;1711852;83;25252;-67
2020/12/14 02:19:33;;;;;;;53.47;32.77;;;;;;;3.48;87.81;99903.75;1711703;83;25169;-67
2020/12/14 02:22:00;;;;;;;58.53;43.67;;;;;;;3.51;87.82;99907.05;1711728;83;26291;-68
2020/12/14 02:24:27;;;;;;;41.83;29.57;;;;;;;3.53;87.81;99904.39;1711742;83;25822;-67
2020/12/14 02:26:54;;;;;;;42.77;29.47;;;;;;;3.55;87.64;99905.16;1711708;83;25114;-67
2020/12/14 02:29:20;;;;;;;44.17;30.50;;;;;;;3.53;87.57;99899.19;1735777;82;25298;-68
2020/12/14 02:31:47;;;;;;;41.93;27.10;;;;;;;3.51;87.51;99897.11;1738353;82;25179;-67
2020/12/14 02:34:14;;;;;;;39.17;27.20;;;;;;;3.49;87.49;99896.34;1738198;82;25624;-67
2020/12/14 02:36:40;;;;;;;42.10;26.43;;;;;;;3.47;87.51;99901.61;1738198;82;25320;-67
2020/12/14 02:39:07;;;;;;;38.97;25.47;;;;;;;3.49;87.56;99913.25;1738144;82;25188;-67
2020/12/14 02:41:35;;;;;;;37.87;26.57;;;;;;;3.49;87.67;99911.95;1738157;82;25324;-68
2020/12/14 02:44:01;;;;;;;40.40;26.10;;;;;;;3.50;87.69;99911.89;1738120;82;25290;-67
2020/12/14 02:46:28;;;;;;;39.10;27.10;;;;;;;3.50;87.76;99909.72;1738071;82;25191;-67
2020/12/14 02:48:55;;;;;;;39.50;26.83;;;;;;;3.49;87.80;99906.28;1738123;82;25088;-67
2020/12/14 02:51:22;;;;;;;40.87;26.93;;;;;;;3.52;87.91;99902.72;1737922;82;25650;-67
2020/12/14 02:53:48;;;;;;;40.73;26.37;;;;;;;3.53;87.91;99908.29;1738165;82;25231;-68
2020/12/14 02:56:16;;;;;;;42.60;27.37;;;;;;;3.56;87.95;99907.32;1738227;82;25175;-68
2020/12/14 02:58:44;;;;;;;38.13;25.93;;;;;;;3.57;87.96;99905.95;1738123;82;25277;-69
2020/12/14 03:01:11;;;;;;;39.03;24.97;;;;;;;3.59;88.02;99911.93;1738266;82;25107;-68
2020/12/14 03:03:37;;;;;;;39.40;26.60;;;;;;;3.57;87.86;99903.36;1738145;82;25329;-68
2020/12/14 03:06:04;;;;;;;36.87;23.87;;;;;;;3.56;87.93;99896.45;1738153;82;25752;-68
2020/12/14 03:08:30;;;;;;;36.03;26.73;;;;;;;3.57;87.93;99896.86;1738217;82;25206;-68
2020/12/14 03:10:57;;;;;;;38.03;26.37;;;;;;;3.53;87.94;99893.52;1738257;82;25341;-69
2020/12/14 03:13:24;;;;;;;38.57;25.80;;;;;;;3.54;88.02;99896.98;1738217;82;25111;-68
2020/12/14 03:15:52;;;;;;;37.93;25.77;;;;;;;3.52;88.01;99890.55;1738149;82;25294;-68
2020/12/14 03:18:19;;;;;;;39.20;26.50;;;;;;;3.51;88.05;99897.11;1738084;82;25672;-68
2020/12/14 03:20:45;;;;;;;37.37;26.13;;;;;;;3.49;88.07;99897.64;1738133;82;25737;-68
2020/12/14 03:23:12;;;;;;;42.37;28.60;;;;;;;3.48;88.13;99900.68;1738152;82;25325;-68
2020/12/14 03:25:41;;;;;;;43.27;29.30;;;;;;;3.53;88.17;99906.52;1738156;82;25724;-68
2020/12/14 03:28:08;;;;;;;42.83;27.87;;;;;;;3.59;87.80;99911.93;1731234;82;25771;-67
2020/12/14 03:30:34;;;;;;;40.40;28.23;;;;;;;3.58;87.55;99906.33;1712098;82;25261;-67
2020/12/14 03:33:01;;;;;;;44.13;29.47;;;;;;;3.54;87.66;99913.89;1695534;82;25365;-68
2020/12/14 03:35:27;;;;;;;42.23;28.30;;;;;;;3.56;87.56;99902.95;1712129;83;25367;-68
2020/12/14 03:37:54;;;;;;;39.93;27.03;;;;;;;3.55;87.61;99906.92;1712088;83;25248;-68
2020/12/14 03:40:21;;;;;;;40.80;28.63;;;;;;;3.54;87.61;99908.69;1695630;83;25311;-68
2020/12/14 03:42:47;;;;;;;44.00;28.27;;;;;;;3.56;87.51;99909.45;1711872;83;25391;-67
2020/12/14 03:45:14;;;;;;;39.87;26.47;;;;;;;3.56;87.53;99909.92;1712051;82;25292;-67
2020/12/14 03:47:40;;;;;;;40.90;26.87;;;;;;;3.51;87.65;99905.75;1711968;82;25754;-67
2020/12/14 03:50:07;;;;;;;42.50;28.33;;;;;;;3.53;87.75;99903.09;1711989;83;25304;-67
2020/12/14 03:52:34;;;;;;;40.77;27.80;;;;;;;3.51;87.78;99909.66;1711834;83;25249;-67
2020/12/14 03:55:01;;;;;;;43.70;28.67;;;;;;;3.57;87.87;99918.96;1711963;82;25142;-67
2020/12/14 03:57:32;;;;;;;47.23;28.00;;;;;;;3.58;87.90;99912.83;1711964;82;25351;-67
2020/12/14 03:59:59;;;;;;;40.93;27.60;;;;;;;3.60;87.92;99914.06;1697955;83;25296;-68
2020/12/14 04:02:28;;;;;;;44.27;27.63;;;;;;;3.61;87.80;99917.91;1712038;82;25228;-68
2020/12/14 04:04:55;;;;;;;42.33;27.67;;;;;;;3.57;87.84;99917.66;1712017;82;25127;-69
2020/12/14 04:07:21;;;;;;;44.73;28.37;;;;;;;3.59;87.95;99925.40;1711946;82;25735;-68
2020/12/14 04:09:48;;;;;;;45.97;28.63;;;;;;;3.60;87.97;99925.30;1712210;82;25740;-68
2020/12/14 04:12:15;;;;;;;43.70;28.50;;;;;;;3.60;87.95;99920.56;1711965;82;25396;-67
2020/12/14 04:14:41;;;;;;;43.07;28.63;;;;;;;3.60;87.97;99932.27;1711942;82;25352;-68
2020/12/14 04:17:08;;;;;;;41.37;27.63;;;;;;;3.59;88.08;99935.34;1711886;83;25784;-68
2020/12/14 04:19:34;;;;;;;43.27;27.90;;;;;;;3.61;88.09;99938.70;1712041;82;25194;-68
2020/12/14 04:22:07;;;;;;;46.57;29.40;;;;;;;3.61;88.05;99936.58;1711975;82;25328;-68
2020/12/14 04:24:30;;;;;;;41.47;27.27;;;;;;;3.59;88.05;99940.54;1711487;83;25707;-68
2020/12/14 04:26:56;;;;;;;42.97;28.53;;;;;;;3.60;88.14;99937.01;1712045;83;25229;-68
2020/12/14 04:29:23;;;;;;;42.50;27.70;;;;;;;3.61;88.12;99940.01;1738012;81;25595;-68
2020/12/14 04:31:50;;;;;;;39.53;27.27;;;;;;;3.62;88.17;99941.71;1741230;82;25245;-68
2020/12/14 04:34:18;;;;;;;40.93;28.10;;;;;;;3.62;88.16;99947.34;1741362;82;25091;-67
2020/12/14 04:36:46;;;;;;;38.73;25.80;;;;;;;3.58;88.09;99941.91;1741318;82;25087;-67
2020/12/14 04:39:13;;;;;;;41.20;27.43;;;;;;;3.56;88.03;99941.97;1741256;82;25721;-67
2020/12/14 04:41:40;;;;;;;42.23;28.93;;;;;;;3.55;87.97;99933.77;1741145;82;25190;-67
2020/12/14 04:44:10;;;;;;;41.03;27.27;;;;;;;3.52;88.01;99933.92;1741124;82;25609;-68
2020/12/14 04:46:37;;;;;;;39.43;26.43;;;;;;;3.51;88.07;99937.42;1741153;82;25589;-68
2020/12/14 04:49:06;;;;;;;43.83;29.73;;;;;;;3.49;88.17;99943.16;1741100;82;25079;-68
2020/12/14 04:51:38;;;;;;;44.93;28.27;;;;;;;3.46;88.29;99953.69;1741176;82;25218;-68
2020/12/14 04:54:05;;;;;;;43.47;28.40;;;;;;;3.46;88.34;99953.69;1741214;82;25100;-68
2020/12/14 04:56:40;;;;;;;46.00;29.77;;;;;;;3.45;88.31;99946.78;1713804;82;25281;-67
2020/12/14 04:59:08;;;;;;;43.87;28.87;;;;;;;3.44;88.52;99952.91;1741297;82;25222;-68
2020/12/14 05:01:35;;;;;;;45.30;30.70;;;;;;;3.44;88.44;99958.12;1741364;82;25096;-68
2020/12/14 05:04:02;;;;;;;45.13;29.93;;;;;;;3.47;88.57;99957.52;1741268;82;25709;-67
2020/12/14 05:06:50;;;;;;;44.50;29.33;;;;;;;3.51;88.61;99968.17;1741148;82;25586;-68
2020/12/14 05:09:24;;;;;;;48.10;30.77;;;;;;;3.53;88.58;99972.84;1741326;82;25079;-66
2020/12/14 05:11:51;;;;;;;45.47;30.40;;;;;;;3.53;88.57;99970.70;1741327;82;25084;-67
2020/12/14 05:14:20;;;;;;;44.70;28.70;;;;;;;3.56;88.54;99968.45;1741343;82;25166;-67
2020/12/14 05:16:48;;;;;;;44.27;28.90;;;;;;;3.55;88.55;99962.37;1741343;82;25233;-67
2020/12/14 05:19:25;;;;;;;46.73;30.53;;;;;;;3.56;88.55;99960.17;1741352;82;25270;-67
2020/12/14 05:22:01;;;;;;;47.10;30.10;;;;;;;3.55;88.51;99961.54;1741306;82;25181;-68
2020/12/14 05:24:31;;;;;;;45.30;28.70;;;;;;;3.55;88.53;99960.23;1741382;82;25226;-67
2020/12/14 05:27:00;;;;;;;49.17;30.57;;;;;;;3.55;88.58;99961.08;1741410;82;25301;-68
2020/12/14 05:29:29;;;;;;;46.40;30.23;;;;;;;3.55;88.56;99957.64;1739712;82;25568;-67
2020/12/14 05:32:06;;;;;;;48.97;31.13;;;;;;;3.55;88.58;99966.74;1738132;82;25673;-67
2020/12/14 05:34:42;;;;;;;46.40;28.83;;;;;;;3.53;88.63;99965.50;1738280;82;25108;-68
2020/12/14 05:37:14;;;;;;;47.17;31.93;;;;;;;3.52;88.56;99960.77;1737806;82;25203;-68
2020/12/14 05:39:42;;;;;;;46.63;31.23;;;;;;;3.53;88.65;99967.64;1738192;82;25187;-68
2020/12/14 05:42:16;;;;;;;48.60;31.10;;;;;;;3.55;88.62;99970.17;1738075;82;25701;-68
2020/12/14 05:44:47;;;;;;;43.63;29.53;;;;;;;3.56;88.54;99965.38;1738175;82;25309;-67
2020/12/14 05:47:30;;;;;;;45.60;30.07;;;;;;;3.56;88.69;99969.28;1738300;82;25179;-67
2020/12/14 05:50:00;;;;;;;52.27;32.50;;;;;;;3.56;88.64;99974.95;1738139;82;25589;-67
2020/12/14 05:52:35;;;;;;;50.73;32.07;;;;;;;3.57;88.64;99976.18;1738198;82;25143;-68
2020/12/14 05:55:02;;;;;;;46.30;31.10;;;;;;;3.60;88.64;99977.33;1738226;82;25179;-68
2020/12/14 05:57:35;;;;;;;53.00;33.83;;;;;;;3.59;88.64;99970.45;1738192;82;25238;-67
2020/12/14 06:00:08;;;;;;;51.53;32.17;;;;;;;3.59;88.67;99980.86;1738237;82;25734;-68
2020/12/14 06:02:35;;;;;;;47.77;31.47;;;;;;;3.68;88.72;99982.20;1738126;82;25617;-67
2020/12/14 06:05:05;;;;;;;49.87;30.77;;;;;;;3.68;88.52;99977.84;1738337;82;25375;-67
2020/12/14 06:07:33;;;;;;;49.50;29.97;;;;;;;3.65;88.51;99980.60;1737959;82;25289;-68
2020/12/14 06:10:16;;;;;;;50.30;33.47;;;;;;;3.63;88.47;99988.06;1738074;82;25247;-67
2020/12/14 06:12:47;;;;;;;46.53;30.93;;;;;;;3.61;88.54;99983.39;1738150;82;25736;-68
2020/12/14 06:15:16;;;;;;;49.50;32.07;;;;;;;3.60;88.57;99983.83;1738396;82;25304;-67
2020/12/14 06:17:45;;;;;;;46.70;31.53;;;;;;;3.62;88.57;99986.36;1738162;82;25171;-67
2020/12/14 06:20:22;;;;;;;49.20;32.10;;;;;;;3.62;88.59;99992.87;1738073;82;25420;-69
2020/12/14 06:23:05;;;;;;;52.50;34.37;;;;;;;3.61;88.59;99994.63;1738116;82;25361;-68
2020/12/14 06:25:32;;;;;;;52.33;33.93;;;;;;;3.62;88.65;100002.84;1736183;82;25487;-67
2020/12/14 06:28:29;;;;;;;55.47;35.60;;;;;;;3.67;88.73;100001.31;1738107;82;25172;-67
2020/12/14 06:30:56;;;;;;;60.60;36.33;;;;;;;3.73;88.66;100008.86;1708149;82;25234;-67
2020/12/14 06:33:39;;;;;;;55.23;35.27;;;;;;;3.81;88.55;100007.25;1738291;82;25240;-66
2020/12/14 06:36:21;;;;;;;52.93;35.53;;;;;;;3.84;88.30;100007.12;1738141;82;25155;-67
2020/12/14 06:38:49;;;;;;;54.10;35.13;;;;;;;3.85;88.00;100009.63;1737213;82;25601;-67
2020/12/14 06:41:18;;;;;;;59.00;36.90;;;;;;;3.91;88.09;100018.94;1738138;82;25290;-67
2020/12/14 06:43:48;;;;;;;53.47;34.13;;;;;;;3.89;87.92;100009.90;1738075;82;25768;-68
2020/12/14 06:46:27;;;;;;;59.53;36.13;;;;;;;3.86;87.80;100013.09;1737013;82;25278;-68
2020/12/14 06:48:54;;;;;;;56.03;36.80;;;;;;;3.87;87.96;100021.27;1736084;82;25233;-68
2020/12/14 06:51:21;;;;;;;57.73;37.20;;;;;;;3.86;88.01;100015.70;1738103;82;25092;-68
2020/12/14 06:53:54;;;;;;;56.03;36.23;;;;;;;3.89;88.01;100020.77;1709702;82;25183;-67
2020/12/14 06:56:41;;;;;;;55.10;35.47;;;;;;;3.90;88.01;100019.84;1738284;82;25107;-67
2020/12/14 06:59:27;;;;;;;63.53;40.37;;;;;;;3.90;87.99;100021.14;1738214;82;25234;-68
2020/12/14 07:02:05;;;;;;;61.47;38.97;;;;;;;3.90;88.01;100018.53;1738058;82;25660;-68
2020/12/14 07:04:38;;;;;;;55.30;38.33;;;;;;;3.92;88.07;100021.08;1738224;82;25139;-67
2020/12/14 07:07:11;;;;;;;59.73;40.37;;;;;;;3.90;87.99;100027.21;1738156;82;25198;-68
2020/12/14 07:09:39;;;;;;;54.43;36.73;;;;;;;4.00;88.04;100029.39;1738314;82;25231;-68
2020/12/14 07:12:15;;;;;;;60.93;39.20;;;;;;;4.04;87.77;100033.57;1738119;82;25611;-68
2020/12/14 07:14:49;;;;;;;62.73;39.63;;;;;;;4.01;87.70;100033.23;1738156;82;25160;-67
2020/12/14 07:17:25;;;;;;;55.67;36.67;;;;;;;4.03;87.70;100027.50;1738114;82;25638;-67
2020/12/14 07:19:54;;;;;;;55.07;34.70;;;;;;;4.05;87.59;100028.27;1738176;82;25337;-67
2020/12/14 07:22:37;;;;;;;54.50;33.30;;;;;;;4.03;87.64;100030.10;1738094;82;25618;-69
2020/12/14 07:25:05;;;;;;;53.70;35.17;;;;;;;4.00;87.55;100028.93;1735912;82;25151;-68
2020/12/14 07:27:33;;;;;;;57.37;36.47;;;;;;;3.96;87.55;100028.69;1737930;82;25175;-67
2020/12/14 07:30:09;;;;;;;54.63;35.33;;;;;;;3.93;87.67;100034.02;1738100;82;25210;-67
2020/12/14 07:32:36;;;;;;;55.47;36.07;;;;;;;3.91;87.70;100034.55;1738123;82;25167;-67
2020/12/14 07:35:06;;;;;;;53.97;34.87;;;;;;;3.92;87.79;100040.59;1738159;82;25076;-68
2020/12/14 07:37:33;;;;;;;54.17;34.10;;;;;;;3.92;87.81;100037.52;1738044;82;25119;-68
2020/12/14 07:40:01;;;;;;;51.83;33.67;;;;;;;3.95;87.77;100033.49;1738141;82;25314;-68
2020/12/14 07:42:31;;;;;;;57.60;37.40;;;;;;;3.93;87.74;100031.89;1738118;82;25333;-68
2020/12/14 07:45:20;;;;;;;52.07;33.30;;;;;;;3.90;87.80;100023.31;1737939;82;25514;-67
2020/12/14 07:47:51;;;;;;;55.03;34.43;;;;;;;3.90;87.81;100023.31;1738103;82;25337;-67
2020/12/14 07:50:26;;;;;;;56.00;36.07;;;;;;;3.83;87.83;100020.56;1709733;82;25170;-67
2020/12/14 07:52:54;;;;;;;56.17;35.97;;;;;;;3.83;87.87;100028.83;1738019;82;25416;-67
2020/12/14 07:55:23;;;;;;;59.13;35.63;;;;;;;3.81;87.99;100026.30;1738244;82;25278;-68
2020/12/14 07:57:51;;;;;;;58.87;38.43;;;;;;;3.83;88.04;100034.04;1738146;82;25775;-67
2020/12/14 08:00:24;;;;;;;62.53;37.50;;;;;;;3.86;88.09;100039.11;1738223;82;25330;-68
2020/12/14 08:02:59;;;;;;;54.90;35.80;;;;;;;3.88;88.09;100042.48;1738307;82;25270;-67
2020/12/14 08:05:20;;;;;;;54.83;35.53;;;;;;;3.93;88.10;100044.90;1736785;82;25759;-68
2020/12/14 08:07:51;;;;;;;60.50;37.87;;;;;;;3.92;88.05;100047.94;1708954;82;25764;-68
2020/12/14 08:13:09;;;;;;;60.67;37.90;;;;;;;4.04;88.07;100056.53;1818419;78;26854;-68
2020/12/14 08:15:34;;;;;;;62.47;39.37;;;;;;;4.03;88.10;100052.22;1789500;79;25291;-68
2020/12/14 08:18:07;;;;;;;58.63;38.10;;;;;;;4.08;87.94;100060.68;1789494;79;25210;-68
2020/12/14 08:20:36;;;;;;;58.43;36.83;;;;;;;4.09;87.83;100057.17;1789395;79;25803;-67
2020/12/14 08:23:23;;;;;;;62.43;39.23;;;;;;;4.13;87.81;100066.99;1789437;79;25222;-68
2020/12/14 08:25:51;;;;;;;64.53;39.47;;;;;;;4.15;87.78;100063.02;1789484;79;25309;-68
2020/12/14 08:28:27;;;;;;;55.27;36.60;;;;;;;4.19;87.86;100055.45;1789461;80;25262;-68
2020/12/14 08:30:57;;;;;;;56.07;35.60;;;;;;;4.26;87.88;100060.80;1789253;79;25703;-69
2020/12/14 08:33:27;;;;;;;61.37;37.97;;;;;;;4.32;87.82;100067.02;1789402;79;25237;-68
2020/12/14 08:35:55;;;;;;;52.37;32.57;;;;;;;4.42;87.86;100069.62;1763427;80;25221;-68
2020/12/14 08:38:28;;;;;;;58.13;38.37;;;;;;;4.51;87.54;100065.75;1762699;80;25312;-69
2020/12/14 08:41:03;;;;;;;56.47;35.23;;;;;;;4.55;87.58;100071.66;1739595;80;25712;-70
2020/12/14 08:43:35;;;;;;;59.57;38.73;;;;;;;4.63;87.27;100077.36;1789509;79;25304;-70
2020/12/14 08:46:14;;;;;;;58.97;36.87;;;;;;;4.69;87.08;100082.27;1789376;79;25360;-68
2020/12/14 08:48:55;;;;;;;57.50;37.27;;;;;;;4.68;86.71;100083.20;1789451;79;25217;-70
2020/12/14 08:51:26;;;;;;;65.33;39.17;;;;;;;4.69;86.93;100086.65;1756557;80;25324;-68
2020/12/14 08:53:55;;;;;;;58.07;37.03;;;;;;;4.69;86.66;100090.55;1784200;79;25135;-68
2020/12/14 08:56:33;;;;;;;53.77;33.93;;;;;;;4.71;86.68;100090.02;1784243;79;25308;-67
2020/12/14 08:59:00;;;;;;;59.47;35.77;;;;;;;4.72;86.49;100096.47;1784181;79;25652;-68
2020/12/14 09:01:32;;;;;;;54.27;34.03;;;;;;;4.73;86.55;100086.45;1784244;79;25629;-69
2020/12/14 09:04:02;;;;;;;51.97;33.47;;;;;;;4.77;86.51;100088.45;1783751;79;25209;-67
2020/12/14 09:06:36;;;;;;;54.93;36.47;;;;;;;4.81;86.50;100083.50;1757811;80;25286;-67
2020/12/14 09:09:16;;;;;;;52.17;34.97;;;;;;;4.84;86.40;100078.11;1784259;80;25151;-68
2020/12/14 09:11:52;;;;;;;52.00;33.83;;;;;;;4.92;86.42;100077.77;1759361;80;25282;-68
2020/12/14 09:14:26;;;;;;;53.23;34.00;;;;;;;4.98;86.42;100069.20;1784130;80;25373;-70
2020/12/14 09:17:03;;;;;;;53.90;34.57;;;;;;;5.05;86.08;100068.92;1817284;77;26315;-69
2020/12/14 09:19:35;;;;;;;51.37;34.23;;;;;;;5.04;86.02;100063.31;1788441;79;25620;-68
2020/12/14 09:22:05;;;;;;;52.73;33.13;;;;;;;5.04;85.74;100064.61;1788353;79;25503;-67
2020/12/14 09:24:36;;;;;;;53.03;33.67;;;;;;;5.06;85.50;100061.47;1759134;80;25279;-70
2020/12/14 09:27:14;;;;;;;47.63;31.87;;;;;;;5.12;85.82;100065.92;1788297;79;25613;-68
2020/12/14 09:29:41;;;;;;;42.97;29.33;;;;;;;5.18;85.78;100052.61;1788324;79;25616;-68
2020/12/14 09:32:10;;;;;;;47.97;31.33;;;;;;;5.28;85.76;100046.48;1788044;79;25047;-70
2020/12/14 09:34:42;;;;;;;46.17;31.07;;;;;;;5.31;85.50;100044.17;1788436;79;25378;-68
2020/12/14 09:37:10;;;;;;;42.30;28.30;;;;;;;5.37;85.54;100044.72;1726516;80;25676;-70
2020/12/14 09:39:39;;;;;;;44.57;30.63;;;;;;;5.45;85.33;100041.73;1788263;80;25258;-69
2020/12/14 09:42:09;;;;;;;56.60;34.03;;;;;;;5.53;85.10;100041.34;1788146;80;25716;-68
2020/12/14 09:44:42;;;;;;;46.53;31.50;;;;;;;5.58;85.10;100044.59;1757835;80;25160;-69
2020/12/14 09:47:09;;;;;;;47.27;31.90;;;;;;;5.55;84.64;100024.70;1758134;79;25249;-70
2020/12/14 09:49:39;;;;;;;44.20;29.47;;;;;;;5.67;84.57;100035.45;1758789;80;25648;-68
2020/12/14 09:52:07;;;;;;;43.63;30.63;;;;;;;5.71;84.54;100039.58;1719325;81;25135;-68
2020/12/14 09:54:34;;;;;;;46.13;29.90;;;;;;;5.73;84.44;100048.16;1723295;81;25278;-69
2020/12/14 09:57:01;;;;;;;44.17;29.27;;;;;;;5.76;84.31;100044.09;1757143;80;25327;-68
2020/12/14 09:59:27;;;;;;;47.13;31.73;;;;;;;5.80;84.22;100047.39;1757173;80;25085;-68
2020/12/14 10:01:54;;;;;;;43.97;29.53;;;;;;;5.87;84.32;100053.54;1757105;80;25326;-67
2020/12/14 10:04:21;;;;;;;47.77;30.87;;;;;;;5.87;83.66;100044.88;1757107;80;25132;-67
2020/12/14 10:06:49;;;;;;;54.10;34.67;;;;;;;5.89;83.72;100039.94;1757181;80;25211;-67
2020/12/14 10:09:16;;;;;;;47.23;30.20;;;;;;;5.90;83.36;100041.64;1756974;80;25270;-68
2020/12/14 10:11:43;;;;;;;47.20;31.40;;;;;;;5.90;83.36;100039.02;1757133;80;25345;-69
2020/12/14 10:14:11;;;;;;;45.77;31.10;;;;;;;5.91;83.26;100042.00;1757019;81;25097;-69
2020/12/14 10:16:37;;;;;;;55.70;35.13;;;;;;;5.92;83.23;100038.95;1761092;80;25599;-68
2020/12/14 10:19:05;;;;;;;53.20;34.10;;;;;;;5.94;83.41;100044.45;1762794;80;25143;-69
2020/12/14 10:21:32;;;;;;;47.27;30.80;;;;;;;6.00;83.21;100042.48;1730412;81;25314;-69
2020/12/14 10:23:59;;;;;;;41.87;27.87;;;;;;;6.00;82.41;100047.70;1762825;80;25146;-68
2020/12/14 10:26:28;;;;;;;39.60;28.33;;;;;;;6.06;83.13;100047.39;1762647;80;25302;-68
2020/12/14 10:28:55;;;;;;;43.93;29.80;;;;;;;6.06;82.88;100042.17;1762153;80;25164;-68
2020/12/14 10:31:21;;;;;;;41.83;27.93;;;;;;;6.08;82.84;100037.27;1762243;80;25274;-67
2020/12/14 10:33:49;;;;;;;37.20;26.50;;;;;;;6.15;82.95;100030.39;1729713;81;25198;-69
2020/12/14 10:36:18;;;;;;;36.57;24.53;;;;;;;6.16;82.62;100027.70;1762263;80;25258;-68
2020/12/14 10:38:46;;;;;;;38.97;26.47;;;;;;;6.20;82.59;100024.46;1762134;81;25281;-68
2020/12/14 10:41:17;;;;;;;41.37;26.70;;;;;;;6.23;82.55;100018.61;1762217;80;25266;-69
2020/12/14 10:43:44;;;;;;;38.30;25.97;;;;;;;6.30;82.29;100029.13;1761885;81;25305;-68
2020/12/14 10:46:11;;;;;;;39.50;26.13;;;;;;;6.32;82.10;100014.69;1729843;81;25607;-68
2020/12/14 10:48:38;;;;;;;41.30;26.13;;;;;;;6.39;82.18;100010.80;1729693;81;25265;-68
2020/12/14 10:51:04;;;;;;;40.97;25.70;;;;;;;6.45;82.02;100007.00;1762097;80;25333;-68
2020/12/14 10:53:35;;;;;;;41.03;26.30;;;;;;;6.49;81.87;99999.39;1762131;81;25708;-70
2020/12/14 10:56:03;;;;;;;41.33;26.57;;;;;;;6.53;81.45;99996.14;1734441;81;25207;-70
2020/12/14 10:58:30;;;;;;;47.93;30.03;;;;;;;6.55;81.38;99992.98;1705834;81;25218;-68
2020/12/14 11:00:57;;;;;;;47.63;31.17;;;;;;;6.56;81.41;99998.12;1734765;81;25314;-68
2020/12/14 11:03:25;;;;;;;55.43;34.60;;;;;;;6.61;81.25;100002.63;1734519;81;25720;-69
2020/12/14 11:05:55;;;;;;;60.27;36.60;;;;;;;6.65;81.22;100005.47;1734828;81;25278;-69
2020/12/14 11:08:23;;;;;;;48.70;30.67;;;;;;;6.67;81.18;100001.47;1762223;80;25325;-69
2020/12/14 11:10:55;;;;;;;48.03;31.47;;;;;;;6.74;81.27;100001.50;1762349;80;25262;-68
2020/12/14 11:13:23;;;;;;;44.53;28.70;;;;;;;6.81;80.86;99999.38;1762293;80;25665;-68
2020/12/14 11:15:53;;;;;;;34.43;24.23;;;;;;;6.87;80.15;99995.09;1761329;80;26313;-68
2020/12/14 11:18:20;;;;;;;32.63;22.57;;;;;;;6.89;79.83;99985.42;1731935;81;25302;-69
2020/12/14 11:20:47;;;;;;;29.57;19.80;;;;;;;6.89;80.09;99986.72;1680235;81;25286;-70
2020/12/14 11:23:14;;;;;;;37.40;24.43;;;;;;;6.90;80.18;99986.25;1759362;80;26726;-70
2020/12/14 11:25:42;;;;;;;66.80;41.60;;;;;;;6.95;80.34;99984.22;1727680;80;25136;-70
2020/12/14 11:28:09;;;;;;;62.80;39.63;;;;;;;7.00;79.81;99986.10;1731899;81;26288;-68
2020/12/14 11:30:40;;;;;;;43.93;28.00;;;;;;;6.95;79.14;99982.44;1731660;80;25191;-69
2020/12/14 11:33:07;;;;;;;36.40;25.20;;;;;;;6.96;79.07;99976.77;1759607;81;26672;-69
2020/12/14 11:35:34;;;;;;;31.13;21.00;;;;;;;6.88;79.47;99970.17;1759613;81;25068;-70